sensor_id;sensor_type;location;lat;lon;timestamp;P1;durP1;ratioP1;P2;durP2;ratioP2
75516;SDS011;64097;52.548;13.406;2023-01-01T06:03:02;6.90;;;3.05;;
75516;SDS011;64097;52.548;13.406;2023-01-01T06:05:27;5.82;;;3.10;;
75516;SDS011;64097;52.548;13.406;2023-01-01T06:07:53;4.90;;;2.90;;
75516;SDS011;64097;52.548;13.406;2023-01-01T06:10:18;4.03;;;2.70;;
75516;SDS011;64097;52.548;13.406;2023-01-01T06:12:44;4.75;;;3.00;;
75516;SDS011;64097;52.548;13.406;2023-01-01T06:15:10;4.55;;;2.55;;
75516;SDS011;64097;52.548;13.406;2023-01-01T06:17:35;5.20;;;2.67;;
75516;SDS011;64097;52.548;13.406;2023-01-01T06:20:01;7.57;;;3.20;;
75516;SDS011;64097;52.548;13.406;2023-01-01T06:22:27;5.10;;;2.83;;
75516;SDS011;64097;52.548;13.406;2023-01-01T06:24:52;4.78;;;3.08;;
75516;SDS011;64097;52.548;13.406;2023-01-01T06:27:18;4.53;;;2.88;;
75516;SDS011;64097;52.548;13.406;2023-01-01T06:29:44;3.78;;;2.63;;
75516;SDS011;64097;52.548;13.406;2023-01-01T06:32:09;5.57;;;2.70;;
75516;SDS011;64097;52.548;13.406;2023-01-01T06:34:35;4.03;;;2.72;;
75516;SDS011;64097;52.548;13.406;2023-01-01T06:37:01;6.32;;;3.00;;
75516;SDS011;64097;52.548;13.406;2023-01-01T06:39:26;5.35;;;2.28;;
75516;SDS011;64097;52.548;13.406;2023-01-01T06:41:53;4.88;;;2.95;;
75516;SDS011;64097;52.548;13.406;2023-01-01T06:44:18;3.97;;;2.35;;
75516;SDS011;64097;52.548;13.406;2023-01-01T06:46:44;6.10;;;3.20;;
75516;SDS011;64097;52.548;13.406;2023-01-01T06:49:10;4.20;;;2.67;;
75516;SDS011;64097;52.548;13.406;2023-01-01T06:51:40;4.15;;;2.60;;
75516;SDS011;64097;52.548;13.406;2023-01-01T06:54:08;4.10;;;2.30;;
75516;SDS011;64097;52.548;13.406;2023-01-01T06:56:35;5.10;;;2.75;;
75516;SDS011;64097;52.548;13.406;2023-01-01T06:59:01;4.35;;;2.80;;
75516;SDS011;64097;52.548;13.406;2023-01-01T07:01:28;5.57;;;2.97;;
75516;SDS011;64097;52.548;13.406;2023-01-01T07:04:03;5.40;;;3.17;;
75516;SDS011;64097;52.548;13.406;2023-01-01T07:06:32;6.20;;;3.38;;
75516;SDS011;64097;52.548;13.406;2023-01-01T07:08:58;5.07;;;2.70;;
75516;SDS011;64097;52.548;13.406;2023-01-01T07:11:25;5.32;;;2.80;;
75516;SDS011;64097;52.548;13.406;2023-01-01T07:13:51;4.63;;;2.70;;
75516;SDS011;64097;52.548;13.406;2023-01-01T07:16:17;5.22;;;3.35;;
75516;SDS011;64097;52.548;13.406;2023-01-01T07:18:43;4.13;;;2.83;;
75516;SDS011;64097;52.548;13.406;2023-01-01T07:23:58;5.10;;;2.83;;
75516;SDS011;64097;52.548;13.406;2023-01-01T07:26:25;5.78;;;2.88;;
75516;SDS011;64097;52.548;13.406;2023-01-01T07:28:52;4.95;;;3.20;;
75516;SDS011;64097;52.548;13.406;2023-01-01T07:31:17;5.43;;;3.00;;
75516;SDS011;64097;52.548;13.406;2023-01-01T07:33:43;5.40;;;3.28;;
75516;SDS011;64097;52.548;13.406;2023-01-01T07:36:09;6.55;;;3.20;;
75516;SDS011;64097;52.548;13.406;2023-01-01T07:38:35;4.22;;;2.90;;
75516;SDS011;64097;52.548;13.406;2023-01-01T07:41:01;3.80;;;2.83;;
75516;SDS011;64097;52.548;13.406;2023-01-01T07:43:26;4.88;;;3.08;;
75516;SDS011;64097;52.548;13.406;2023-01-01T07:45:52;6.43;;;3.53;;
75516;SDS011;64097;52.548;13.406;2023-01-01T07:48:18;7.07;;;3.58;;
75516;SDS011;64097;52.548;13.406;2023-01-01T07:50:43;5.03;;;2.83;;
75516;SDS011;64097;52.548;13.406;2023-01-01T07:53:09;5.55;;;3.28;;
75516;SDS011;64097;52.548;13.406;2023-01-01T07:55:35;5.13;;;3.13;;
75516;SDS011;64097;52.548;13.406;2023-01-01T07:58:01;4.50;;;3.00;;
75516;SDS011;64097;52.548;13.406;2023-01-01T08:00:26;4.18;;;3.22;;
75516;SDS011;64097;52.548;13.406;2023-01-01T08:02:53;5.80;;;3.50;;
75516;SDS011;64097;52.548;13.406;2023-01-01T08:05:18;5.50;;;3.70;;
75516;SDS011;64097;52.548;13.406;2023-01-01T08:07:48;5.85;;;3.75;;
75516;SDS011;64097;52.548;13.406;2023-01-01T08:10:15;4.65;;;3.60;;
75516;SDS011;64097;52.548;13.406;2023-01-01T08:12:41;5.65;;;4.03;;
75516;SDS011;64097;52.548;13.406;2023-01-01T08:15:08;6.63;;;3.70;;
75516;SDS011;64097;52.548;13.406;2023-01-01T08:17:34;5.07;;;3.78;;
75516;SDS011;64097;52.548;13.406;2023-01-01T08:20:00;6.03;;;3.90;;
75516;SDS011;64097;52.548;13.406;2023-01-01T08:22:26;5.13;;;3.90;;
75516;SDS011;64097;52.548;13.406;2023-01-01T08:24:52;5.75;;;3.63;;
75516;SDS011;64097;52.548;13.406;2023-01-01T08:27:17;7.30;;;4.20;;
75516;SDS011;64097;52.548;13.406;2023-01-01T08:29:43;7.32;;;3.67;;
75516;SDS011;64097;52.548;13.406;2023-01-01T08:32:10;5.22;;;3.83;;
75516;SDS011;64097;52.548;13.406;2023-01-01T08:34:36;6.35;;;3.90;;
75516;SDS011;64097;52.548;13.406;2023-01-01T08:37:02;5.90;;;3.85;;
75516;SDS011;64097;52.548;13.406;2023-01-01T08:39:28;5.90;;;3.78;;
75516;SDS011;64097;52.548;13.406;2023-01-01T08:41:53;5.90;;;4.40;;
75516;SDS011;64097;52.548;13.406;2023-01-01T08:44:19;7.68;;;4.20;;
75516;SDS011;64097;52.548;13.406;2023-01-01T08:46:45;4.80;;;3.47;;
75516;SDS011;64097;52.548;13.406;2023-01-01T08:49:10;5.43;;;3.63;;
75516;SDS011;64097;52.548;13.406;2023-01-01T08:51:36;4.30;;;3.55;;
75516;SDS011;64097;52.548;13.406;2023-01-01T08:54:02;5.38;;;3.50;;
75516;SDS011;64097;52.548;13.406;2023-01-01T08:56:28;6.10;;;3.80;;
75516;SDS011;64097;52.548;13.406;2023-01-01T08:58:54;4.80;;;3.38;;
75516;SDS011;64097;52.548;13.406;2023-01-01T09:01:19;6.10;;;3.90;;
75516;SDS011;64097;52.548;13.406;2023-01-01T09:03:46;6.03;;;3.83;;
75516;SDS011;64097;52.548;13.406;2023-01-01T09:06:12;7.10;;;4.07;;
75516;SDS011;64097;52.548;13.406;2023-01-01T09:08:38;5.75;;;3.95;;
75516;SDS011;64097;52.548;13.406;2023-01-01T09:11:04;5.47;;;3.85;;
75516;SDS011;64097;52.548;13.406;2023-01-01T09:13:30;4.68;;;3.53;;
75516;SDS011;64097;52.548;13.406;2023-01-01T09:15:56;7.65;;;3.92;;
75516;SDS011;64097;52.548;13.406;2023-01-01T09:18:22;5.65;;;3.90;;
75516;SDS011;64097;52.548;13.406;2023-01-01T09:20:48;5.20;;;3.92;;
75516;SDS011;64097;52.548;13.406;2023-01-01T09:23:14;6.82;;;3.75;;
75516;SDS011;64097;52.548;13.406;2023-01-01T09:25:40;4.68;;;3.65;;
75516;SDS011;64097;52.548;13.406;2023-01-01T09:28:06;7.32;;;4.30;;
75516;SDS011;64097;52.548;13.406;2023-01-01T09:30:35;4.90;;;3.70;;
75516;SDS011;64097;52.548;13.406;2023-01-01T09:33:01;6.30;;;3.63;;
75516;SDS011;64097;52.548;13.406;2023-01-01T09:35:28;4.63;;;3.53;;
75516;SDS011;64097;52.548;13.406;2023-01-01T09:37:54;5.25;;;3.50;;
75516;SDS011;64097;52.548;13.406;2023-01-01T09:43:24;6.88;;;3.47;;
75516;SDS011;64097;52.548;13.406;2023-01-01T09:46:08;5.63;;;3.30;;
75516;SDS011;64097;52.548;13.406;2023-01-01T09:48:36;5.18;;;3.28;;
75516;SDS011;64097;52.548;13.406;2023-01-01T09:51:06;4.65;;;3.30;;
75516;SDS011;64097;52.548;13.406;2023-01-01T09:53:46;5.97;;;3.42;;
75516;SDS011;64097;52.548;13.406;2023-01-01T09:56:23;5.45;;;3.47;;
75516;SDS011;64097;52.548;13.406;2023-01-01T09:58:54;4.40;;;3.22;;
75516;SDS011;64097;52.548;13.406;2023-01-01T10:13:14;4.80;;;3.15;;
75516;SDS011;64097;52.548;13.406;2023-01-01T10:15:57;6.32;;;3.25;;
75516;SDS011;64097;52.548;13.406;2023-01-01T10:24:12;5.18;;;3.05;;
75516;SDS011;64097;52.548;13.406;2023-01-01T10:26:30;4.97;;;2.97;;
75516;SDS011;64097;52.548;13.406;2023-01-01T10:31:33;4.47;;;3.10;;
75516;SDS011;64097;52.548;13.406;2023-01-01T10:36:41;4.07;;;2.90;;
75516;SDS011;64097;52.548;13.406;2023-01-01T10:39:10;5.63;;;2.97;;
75516;SDS011;64097;52.548;13.406;2023-01-01T10:41:39;3.20;;;2.58;;
75516;SDS011;64097;52.548;13.406;2023-01-01T10:44:05;5.50;;;2.80;;
75516;SDS011;64097;52.548;13.406;2023-01-01T10:46:32;5.95;;;2.95;;
75516;SDS011;64097;52.548;13.406;2023-01-01T10:49:08;3.00;;;2.40;;
75516;SDS011;64097;52.548;13.406;2023-01-01T10:51:43;3.13;;;2.70;;
75516;SDS011;64097;52.548;13.406;2023-01-01T10:56:56;3.72;;;2.50;;
75516;SDS011;64097;52.548;13.406;2023-01-01T10:59:37;4.03;;;2.88;;
75516;SDS011;64097;52.548;13.406;2023-01-01T11:04:44;4.07;;;2.30;;
75516;SDS011;64097;52.548;13.406;2023-01-01T11:07:13;5.15;;;2.80;;
75516;SDS011;64097;52.548;13.406;2023-01-01T11:09:55;4.03;;;2.20;;
75516;SDS011;64097;52.548;13.406;2023-01-01T11:12:24;3.78;;;2.25;;
75516;SDS011;64097;52.548;13.406;2023-01-01T11:14:54;4.20;;;2.40;;
75516;SDS011;64097;52.548;13.406;2023-01-01T11:17:23;3.95;;;2.45;;
75516;SDS011;64097;52.548;13.406;2023-01-01T11:19:50;4.40;;;2.50;;
75516;SDS011;64097;52.548;13.406;2023-01-01T11:22:36;3.30;;;2.17;;
75516;SDS011;64097;52.548;13.406;2023-01-01T11:33:47;3.78;;;2.40;;
75516;SDS011;64097;52.548;13.406;2023-01-01T11:36:21;3.97;;;2.17;;
75516;SDS011;64097;52.548;13.406;2023-01-01T11:39:18;3.65;;;1.85;;
75516;SDS011;64097;52.548;13.406;2023-01-01T11:41:45;4.60;;;2.00;;
75516;SDS011;64097;52.548;13.406;2023-01-01T11:44:25;4.13;;;2.25;;
75516;SDS011;64097;52.548;13.406;2023-01-01T11:47:28;4.90;;;2.47;;
75516;SDS011;64097;52.548;13.406;2023-01-01T11:52:37;2.85;;;1.85;;
75516;SDS011;64097;52.548;13.406;2023-01-01T11:55:10;3.25;;;1.95;;
75516;SDS011;64097;52.548;13.406;2023-01-01T11:57:41;3.53;;;2.08;;
75516;SDS011;64097;52.548;13.406;2023-01-01T12:00:17;4.00;;;2.20;;
75516;SDS011;64097;52.548;13.406;2023-01-01T12:02:47;3.03;;;2.20;;
75516;SDS011;64097;52.548;13.406;2023-01-01T12:05:34;2.55;;;1.92;;
75516;SDS011;64097;52.548;13.406;2023-01-01T12:08:26;2.95;;;1.90;;
75516;SDS011;64097;52.548;13.406;2023-01-01T12:11:14;3.22;;;1.80;;
75516;SDS011;64097;52.548;13.406;2023-01-01T12:13:50;4.85;;;2.45;;
75516;SDS011;64097;52.548;13.406;2023-01-01T12:16:22;3.03;;;2.00;;
75516;SDS011;64097;52.548;13.406;2023-01-01T12:18:58;2.25;;;2.05;;
75516;SDS011;64097;52.548;13.406;2023-01-01T12:21:37;6.28;;;2.38;;
75516;SDS011;64097;52.548;13.406;2023-01-01T12:24:09;3.40;;;2.22;;
75516;SDS011;64097;52.548;13.406;2023-01-01T12:26:48;5.10;;;2.10;;
75516;SDS011;64097;52.548;13.406;2023-01-01T12:29:38;2.25;;;1.70;;
75516;SDS011;64097;52.548;13.406;2023-01-01T12:32:26;2.83;;;1.88;;
75516;SDS011;64097;52.548;13.406;2023-01-01T12:35:04;2.97;;;2.03;;
75516;SDS011;64097;52.548;13.406;2023-01-01T12:40:37;2.28;;;1.65;;
75516;SDS011;64097;52.548;13.406;2023-01-01T12:43:07;3.85;;;2.33;;
75516;SDS011;64097;52.548;13.406;2023-01-01T12:51:17;3.35;;;2.17;;
75516;SDS011;64097;52.548;13.406;2023-01-01T12:54:10;2.95;;;1.80;;
75516;SDS011;64097;52.548;13.406;2023-01-01T12:56:52;3.65;;;2.10;;
75516;SDS011;64097;52.548;13.406;2023-01-01T12:59:46;3.33;;;2.15;;
75516;SDS011;64097;52.548;13.406;2023-01-01T13:02:22;4.43;;;2.50;;
75516;SDS011;64097;52.548;13.406;2023-01-01T13:04:52;4.28;;;2.50;;
75516;SDS011;64097;52.548;13.406;2023-01-01T13:07:28;3.75;;;2.10;;
75516;SDS011;64097;52.548;13.406;2023-01-01T13:10:02;2.80;;;1.90;;
75516;SDS011;64097;52.548;13.406;2023-01-01T13:12:50;3.75;;;2.25;;
75516;SDS011;64097;52.548;13.406;2023-01-01T13:15:50;3.78;;;2.10;;
75516;SDS011;64097;52.548;13.406;2023-01-01T13:20:39;5.40;;;2.58;;
75516;SDS011;64097;52.548;13.406;2023-01-01T13:45:21;2.85;;;2.00;;
